sensor_id;sensor_type;location;lat;lon;timestamp;pressure;altitude;pressure_sealevel;temperature;humidity
8705;BME280;4389;41.932;25.904;2023-03-03T00:01:13;100820.38;;;6.97;99.99
8705;BME280;4389;41.932;25.904;2023-03-03T00:03:39;100821.41;;;6.82;100.00
8705;BME280;4389;41.932;25.904;2023-03-03T00:06:09;100825.81;;;6.81;99.97
8705;BME280;4389;41.932;25.904;2023-03-03T00:08:36;100807.75;;;7.02;100.00
8705;BME280;4389;41.932;25.904;2023-03-03T00:11:04;100809.03;;;6.96;99.76
8705;BME280;4389;41.932;25.904;2023-03-03T00:13:35;100810.25;;;6.91;100.00
8705;BME280;4389;41.932;25.904;2023-03-03T00:16:14;100798.59;;;6.95;100.00
8705;BME280;4389;41.932;25.904;2023-03-03T00:18:43;100788.81;;;6.97;99.27
8705;BME280;4389;41.932;25.904;2023-03-03T00:21:29;100789.53;;;6.99;99.59
8705;BME280;4389;41.932;25.904;2023-03-03T00:24:17;100794.91;;;7.10;99.34
8705;BME280;4389;41.932;25.904;2023-03-03T00:26:47;100786.72;;;7.02;98.89
8705;BME280;4389;41.932;25.904;2023-03-03T00:29:30;100780.72;;;6.87;98.93
8705;BME280;4389;41.932;25.904;2023-03-03T00:32:21;100795.75;;;6.98;100.00
8705;BME280;4389;41.932;25.904;2023-03-03T00:34:49;100787.56;;;7.15;99.16
8705;BME280;4389;41.932;25.904;2023-03-03T00:37:25;100781.94;;;7.07;98.86
8705;BME280;4389;41.932;25.904;2023-03-03T00:39:58;100781.22;;;7.05;99.18
8705;BME280;4389;41.932;25.904;2023-03-03T00:42:32;100774.28;;;7.04;99.12
8705;BME280;4389;41.932;25.904;2023-03-03T00:45:00;100771.25;;;7.10;99.30
8705;BME280;4389;41.932;25.904;2023-03-03T00:47:29;100770.94;;;7.02;99.42
8705;BME280;4389;41.932;25.904;2023-03-03T00:50:20;100770.22;;;7.00;99.38
8705;BME280;4389;41.932;25.904;2023-03-03T00:52:58;100763.75;;;7.04;99.27
8705;BME280;4389;41.932;25.904;2023-03-03T00:55:26;100767.56;;;7.00;98.98
8705;BME280;4389;41.932;25.904;2023-03-03T00:57:54;100773.75;;;6.99;98.99
8705;BME280;4389;41.932;25.904;2023-03-03T01:00:21;100773.25;;;7.06;98.15
8705;BME280;4389;41.932;25.904;2023-03-03T01:02:48;100775.25;;;7.03;98.38
8705;BME280;4389;41.932;25.904;2023-03-03T01:05:17;100765.44;;;7.05;98.33
8705;BME280;4389;41.932;25.904;2023-03-03T01:07:44;100762.28;;;7.12;97.99
8705;BME280;4389;41.932;25.904;2023-03-03T01:10:11;100763.53;;;7.07;98.02
8705;BME280;4389;41.932;25.904;2023-03-03T01:12:38;100765.03;;;7.11;97.85
8705;BME280;4389;41.932;25.904;2023-03-03T01:15:08;100765.13;;;7.09;97.55
8705;BME280;4389;41.932;25.904;2023-03-03T01:17:36;100763.53;;;7.07;97.78
8705;BME280;4389;41.932;25.904;2023-03-03T01:20:05;100760.59;;;6.99;98.04
8705;BME280;4389;41.932;25.904;2023-03-03T01:22:32;100764.78;;;7.14;98.04
8705;BME280;4389;41.932;25.904;2023-03-03T01:24:59;100764.38;;;7.20;97.75
8705;BME280;4389;41.932;25.904;2023-03-03T01:27:28;100761.53;;;7.10;98.09
8705;BME280;4389;41.932;25.904;2023-03-03T01:29:55;100758.47;;;7.29;97.41
8705;BME280;4389;41.932;25.904;2023-03-03T01:32:23;100756.72;;;7.17;97.14
8705;BME280;4389;41.932;25.904;2023-03-03T01:34:50;100752.16;;;7.19;97.73
8705;BME280;4389;41.932;25.904;2023-03-03T01:37:17;100760.78;;;7.21;97.21
8705;BME280;4389;41.932;25.904;2023-03-03T01:39:47;100755.31;;;7.24;97.47
8705;BME280;4389;41.932;25.904;2023-03-03T01:42:14;100751.75;;;7.25;97.40
8705;BME280;4389;41.932;25.904;2023-03-03T01:44:41;100745.00;;;7.21;97.81
8705;BME280;4389;41.932;25.904;2023-03-03T01:47:10;100753.22;;;7.29;97.30
8705;BME280;4389;41.932;25.904;2023-03-03T01:49:44;100745.00;;;7.33;97.12
8705;BME280;4389;41.932;25.904;2023-03-03T01:52:20;100748.59;;;7.20;96.71
8705;BME280;4389;41.932;25.904;2023-03-03T01:54:51;100746.47;;;7.25;97.32
8705;BME280;4389;41.932;25.904;2023-03-03T01:57:23;100749.50;;;7.31;96.81
8705;BME280;4389;41.932;25.904;2023-03-03T01:59:54;100750.47;;;7.30;96.14
8705;BME280;4389;41.932;25.904;2023-03-03T02:02:24;100742.69;;;7.29;96.46
8705;BME280;4389;41.932;25.904;2023-03-03T02:04:54;100749.13;;;7.12;96.99
8705;BME280;4389;41.932;25.904;2023-03-03T02:07:22;100747.34;;;7.13;96.62
8705;BME280;4389;41.932;25.904;2023-03-03T02:09:54;100752.91;;;7.08;96.91
8705;BME280;4389;41.932;25.904;2023-03-03T02:12:28;100753.47;;;7.01;97.42
8705;BME280;4389;41.932;25.904;2023-03-03T02:14:57;100756.81;;;7.03;97.18
8705;BME280;4389;41.932;25.904;2023-03-03T02:17:25;100750.72;;;7.02;97.42
8705;BME280;4389;41.932;25.904;2023-03-03T02:20:02;100751.25;;;6.95;98.17
8705;BME280;4389;41.932;25.904;2023-03-03T02:22:38;100747.69;;;6.96;98.05
8705;BME280;4389;41.932;25.904;2023-03-03T02:25:12;100745.91;;;6.96;98.14
8705;BME280;4389;41.932;25.904;2023-03-03T02:27:42;100747.59;;;6.97;98.42
8705;BME280;4389;41.932;25.904;2023-03-03T02:30:14;100745.06;;;6.96;98.48
8705;BME280;4389;41.932;25.904;2023-03-03T02:32:41;100742.66;;;6.93;98.47
8705;BME280;4389;41.932;25.904;2023-03-03T02:35:27;100752.00;;;6.84;98.19
8705;BME280;4389;41.932;25.904;2023-03-03T02:37:59;100751.91;;;6.86;98.66
8705;BME280;4389;41.932;25.904;2023-03-03T02:40:30;100748.31;;;6.87;98.18
8705;BME280;4389;41.932;25.904;2023-03-03T02:43:01;100747.06;;;6.92;98.27
8705;BME280;4389;41.932;25.904;2023-03-03T02:45:29;100754.09;;;6.92;98.20
8705;BME280;4389;41.932;25.904;2023-03-03T02:47:56;100753.47;;;7.01;98.16
8705;BME280;4389;41.932;25.904;2023-03-03T02:50:23;100745.47;;;6.90;98.52
8705;BME280;4389;41.932;25.904;2023-03-03T02:52:50;100750.63;;;6.91;98.93
8705;BME280;4389;41.932;25.904;2023-03-03T02:55:17;100748.00;;;6.91;98.73
8705;BME280;4389;41.932;25.904;2023-03-03T02:57:44;100751.66;;;7.01;98.67
8705;BME280;4389;41.932;25.904;2023-03-03T03:00:13;100753.56;;;6.99;98.35
8705;BME280;4389;41.932;25.904;2023-03-03T03:02:40;100749.25;;;6.98;98.62
8705;BME280;4389;41.932;25.904;2023-03-03T03:05:07;100741.69;;;6.94;98.32
8705;BME280;4389;41.932;25.904;2023-03-03T03:07:34;100746.94;;;6.81;98.50
8705;BME280;4389;41.932;25.904;2023-03-03T03:10:01;100744.22;;;6.83;98.71
8705;BME280;4389;41.932;25.904;2023-03-03T03:12:27;100747.06;;;6.80;98.68
8705;BME280;4389;41.932;25.904;2023-03-03T03:14:54;100740.22;;;6.90;99.31
8705;BME280;4389;41.932;25.904;2023-03-03T03:17:22;100738.13;;;6.95;99.13
8705;BME280;4389;41.932;25.904;2023-03-03T03:19:49;100743.56;;;6.92;98.64
8705;BME280;4389;41.932;25.904;2023-03-03T03:22:16;100739.81;;;6.83;98.77
8705;BME280;4389;41.932;25.904;2023-03-03T03:24:44;100745.56;;;6.88;98.22
8705;BME280;4389;41.932;25.904;2023-03-03T03:27:10;100740.56;;;6.73;98.41
8705;BME280;4389;41.932;25.904;2023-03-03T03:29:37;100732.56;;;6.87;98.33
8705;BME280;4389;41.932;25.904;2023-03-03T03:32:04;100735.91;;;6.64;99.21
8705;BME280;4389;41.932;25.904;2023-03-03T03:34:33;100729.91;;;6.62;100.00
8705;BME280;4389;41.932;25.904;2023-03-03T03:36:59;100739.59;;;6.74;100.00
8705;BME280;4389;41.932;25.904;2023-03-03T03:39:26;100740.13;;;6.79;99.99
8705;BME280;4389;41.932;25.904;2023-03-03T03:41:53;100736.75;;;6.77;99.33
8705;BME280;4389;41.932;25.904;2023-03-03T03:44:21;100724.00;;;6.96;99.11
8705;BME280;4389;41.932;25.904;2023-03-03T03:46:50;100737.56;;;7.02;98.73
8705;BME280;4389;41.932;25.904;2023-03-03T03:49:17;100731.69;;;6.99;98.71
8705;BME280;4389;41.932;25.904;2023-03-03T03:51:45;100724.22;;;6.80;98.89
8705;BME280;4389;41.932;25.904;2023-03-03T03:54:12;100733.72;;;6.70;98.70
8705;BME280;4389;41.932;25.904;2023-03-03T03:56:39;100720.13;;;6.64;99.38
8705;BME280;4389;41.932;25.904;2023-03-03T03:59:05;100729.06;;;6.74;99.14
8705;BME280;4389;41.932;25.904;2023-03-03T04:01:32;100718.53;;;6.86;99.66
8705;BME280;4389;41.932;25.904;2023-03-03T04:03:59;100722.75;;;6.89;98.68
8705;BME280;4389;41.932;25.904;2023-03-03T04:06:27;100719.81;;;6.81;98.81
8705;BME280;4389;41.932;25.904;2023-03-03T04:08:55;100720.47;;;6.72;98.84
8705;BME280;4389;41.932;25.904;2023-03-03T04:11:22;100720.78;;;6.80;99.11
8705;BME280;4389;41.932;25.904;2023-03-03T04:13:49;100712.13;;;6.78;99.57
8705;BME280;4389;41.932;25.904;2023-03-03T04:16:16;100718.22;;;6.91;99.17
8705;BME280;4389;41.932;25.904;2023-03-03T04:18:43;100710.13;;;6.94;98.55
8705;BME280;4389;41.932;25.904;2023-03-03T04:21:11;100713.50;;;6.96;98.46
8705;BME280;4389;41.932;25.904;2023-03-03T04:23:38;100714.34;;;6.84;98.49
8705;BME280;4389;41.932;25.904;2023-03-03T04:26:07;100708.25;;;6.71;99.03
8705;BME280;4389;41.932;25.904;2023-03-03T04:28:34;100701.94;;;6.73;99.30
8705;BME280;4389;41.932;25.904;2023-03-03T04:31:00;100714.25;;;6.73;99.03
8705;BME280;4389;41.932;25.904;2023-03-03T04:33:27;100707.50;;;6.69;99.86
8705;BME280;4389;41.932;25.904;2023-03-03T04:35:54;100718.75;;;6.71;99.98
8705;BME280;4389;41.932;25.904;2023-03-03T04:38:21;100714.56;;;6.81;99.64
8705;BME280;4389;41.932;25.904;2023-03-03T04:40:48;100711.59;;;6.85;99.56
8705;BME280;4389;41.932;25.904;2023-03-03T04:43:16;100715.16;;;6.97;99.17
8705;BME280;4389;41.932;25.904;2023-03-03T04:45:43;100715.16;;;6.97;98.81
8705;BME280;4389;41.932;25.904;2023-03-03T04:48:10;100717.47;;;7.01;98.50
8705;BME280;4389;41.932;25.904;2023-03-03T04:50:36;100714.97;;;6.87;98.66
8705;BME280;4389;41.932;25.904;2023-03-03T04:53:03;100712.66;;;6.83;99.12
8705;BME280;4389;41.932;25.904;2023-03-03T04:55:30;100720.44;;;6.97;99.20
8705;BME280;4389;41.932;25.904;2023-03-03T04:57:57;100726.22;;;7.02;98.89
8705;BME280;4389;41.932;25.904;2023-03-03T05:00:25;100717.16;;;7.06;98.80
8705;BME280;4389;41.932;25.904;2023-03-03T05:02:52;100721.66;;;7.16;98.84
8705;BME280;4389;41.932;25.904;2023-03-03T05:05:19;100717.28;;;7.04;98.81
8705;BME280;4389;41.932;25.904;2023-03-03T05:07:46;100723.50;;;7.03;98.78
8705;BME280;4389;41.932;25.904;2023-03-03T05:10:13;100725.03;;;7.06;98.58
8705;BME280;4389;41.932;25.904;2023-03-03T05:12:39;100721.91;;;7.01;98.42
8705;BME280;4389;41.932;25.904;2023-03-03T05:15:07;100727.47;;;7.09;98.72
8705;BME280;4389;41.932;25.904;2023-03-03T05:17:36;100729.88;;;7.12;98.75
8705;BME280;4389;41.932;25.904;2023-03-03T05:20:03;100734.94;;;7.15;98.24
8705;BME280;4389;41.932;25.904;2023-03-03T05:22:30;100741.03;;;7.15;97.70
8705;BME280;4389;41.932;25.904;2023-03-03T05:24:57;100729.66;;;7.02;98.26
8705;BME280;4389;41.932;25.904;2023-03-03T05:27:24;100734.09;;;7.02;98.68
8705;BME280;4389;41.932;25.904;2023-03-03T05:29:50;100732.59;;;7.10;98.28
8705;BME280;4389;41.932;25.904;2023-03-03T05:32:17;100730.53;;;7.03;98.41
8705;BME280;4389;41.932;25.904;2023-03-03T05:34:45;100727.59;;;6.95;99.01
8705;BME280;4389;41.932;25.904;2023-03-03T05:37:12;100733.81;;;6.94;99.62
8705;BME280;4389;41.932;25.904;2023-03-03T05:39:40;100729.47;;;7.05;99.24
8705;BME280;4389;41.932;25.904;2023-03-03T05:42:10;100726.94;;;7.04;98.94
8705;BME280;4389;41.932;25.904;2023-03-03T05:44:37;100727.75;;;7.17;99.49
8705;BME280;4389;41.932;25.904;2023-03-03T05:47:04;100727.75;;;7.17;98.95
8705;BME280;4389;41.932;25.904;2023-03-03T05:49:31;100733.22;;;7.14;98.56
8705;BME280;4389;41.932;25.904;2023-03-03T05:51:59;100726.28;;;7.13;98.89
8705;BME280;4389;41.932;25.904;2023-03-03T05:54:26;100730.03;;;7.34;98.91
8705;BME280;4389;41.932;25.904;2023-03-03T05:56:53;100734.81;;;7.29;98.53
8705;BME280;4389;41.932;25.904;2023-03-03T05:59:22;100727.28;;;7.35;98.30
8705;BME280;4389;41.932;25.904;2023-03-03T06:01:49;100737.19;;;7.32;98.38
8705;BME280;4389;41.932;25.904;2023-03-03T06:04:16;100726.25;;;7.38;97.84
8705;BME280;4389;41.932;25.904;2023-03-03T06:06:42;100739.06;;;7.42;97.88
8705;BME280;4389;41.932;25.904;2023-03-03T06:09:11;100733.13;;;7.51;97.43
8705;BME280;4389;41.932;25.904;2023-03-03T06:11:37;100735.44;;;7.56;97.10
8705;BME280;4389;41.932;25.904;2023-03-03T06:14:04;100733.72;;;7.67;97.23
8705;BME280;4389;41.932;25.904;2023-03-03T06:16:31;100733.50;;;7.70;96.66
8705;BME280;4389;41.932;25.904;2023-03-03T06:18:58;100731.56;;;7.49;96.35
8705;BME280;4389;41.932;25.904;2023-03-03T06:21:25;100730.91;;;7.58;97.15
8705;BME280;4389;41.932;25.904;2023-03-03T06:24:00;100734.78;;;7.65;96.70
8705;BME280;4389;41.932;25.904;2023-03-03T06:26:28;100740.88;;;7.65;96.73
8705;BME280;4389;41.932;25.904;2023-03-03T06:28:55;100740.81;;;7.78;96.67
8705;BME280;4389;41.932;25.904;2023-03-03T06:31:22;100737.72;;;7.73;96.30
8705;BME280;4389;41.932;25.904;2023-03-03T06:33:49;100745.31;;;7.65;96.45
8705;BME280;4389;41.932;25.904;2023-03-03T06:36:16;100755.81;;;7.77;96.34
8705;BME280;4389;41.932;25.904;2023-03-03T06:38:43;100741.63;;;7.67;96.57
8705;BME280;4389;41.932;25.904;2023-03-03T06:41:10;100747.66;;;7.57;96.44
8705;BME280;4389;41.932;25.904;2023-03-03T06:43:39;100750.94;;;7.48;96.97
8705;BME280;4389;41.932;25.904;2023-03-03T06:46:05;100746.72;;;7.58;97.15
8705;BME280;4389;41.932;25.904;2023-03-03T06:48:32;100741.94;;;7.63;97.04
8705;BME280;4389;41.932;25.904;2023-03-03T06:51:01;100745.53;;;7.62;97.54
8705;BME280;4389;41.932;25.904;2023-03-03T06:53:30;100747.81;;;7.66;97.43
8705;BME280;4389;41.932;25.904;2023-03-03T06:55:59;100748.41;;;7.82;97.64
8705;BME280;4389;41.932;25.904;2023-03-03T06:58:27;100727.28;;;7.95;97.27
8705;BME280;4389;41.932;25.904;2023-03-03T07:00:58;100736.06;;;8.06;95.96
8705;BME280;4389;41.932;25.904;2023-03-03T07:03:26;100738.31;;;8.00;95.84
8705;BME280;4389;41.932;25.904;2023-03-03T07:05:54;100730.88;;;7.94;96.61
8705;BME280;4389;41.932;25.904;2023-03-03T07:08:22;100734.03;;;8.10;96.76
8705;BME280;4389;41.932;25.904;2023-03-03T07:10:50;100732.63;;;8.17;95.86
8705;BME280;4389;41.932;25.904;2023-03-03T07:13:20;100735.22;;;8.29;95.62
8705;BME280;4389;41.932;25.904;2023-03-03T07:15:48;100731.97;;;8.26;94.85
8705;BME280;4389;41.932;25.904;2023-03-03T07:18:28;100735.81;;;8.22;95.15
8705;BME280;4389;41.932;25.904;2023-03-03T07:20:57;100731.84;;;8.04;95.27
8705;BME280;4389;41.932;25.904;2023-03-03T07:23:26;100729.28;;;8.15;95.59
8705;BME280;4389;41.932;25.904;2023-03-03T07:25:53;100736.75;;;8.21;95.76
8705;BME280;4389;41.932;25.904;2023-03-03T07:28:23;100720.78;;;7.88;95.28
8705;BME280;4389;41.932;25.904;2023-03-03T07:30:51;100726.81;;;8.01;95.94
8705;BME280;4389;41.932;25.904;2023-03-03T07:33:25;100731.66;;;8.07;95.60
8705;BME280;4389;41.932;25.904;2023-03-03T07:35:53;100736.94;;;8.41;94.96
8705;BME280;4389;41.932;25.904;2023-03-03T07:38:29;100733.16;;;8.67;94.14
8705;BME280;4389;41.932;25.904;2023-03-03T07:40:58;100733.78;;;8.71;92.78
8705;BME280;4389;41.932;25.904;2023-03-03T07:43:30;100726.78;;;8.70;92.06
8705;BME280;4389;41.932;25.904;2023-03-03T07:46:02;100729.69;;;8.78;91.58
8705;BME280;4389;41.932;25.904;2023-03-03T07:48:41;100728.25;;;8.74;91.79
8705;BME280;4389;41.932;25.904;2023-03-03T07:51:12;100730.66;;;8.88;91.13
8705;BME280;4389;41.932;25.904;2023-03-03T07:53:42;100728.50;;;9.14;90.58
8705;BME280;4389;41.932;25.904;2023-03-03T07:56:14;100729.38;;;9.68;89.16
8705;BME280;4389;41.932;25.904;2023-03-03T07:58:43;100731.88;;;9.70;87.68
8705;BME280;4389;41.932;25.904;2023-03-03T08:01:28;100727.19;;;9.73;86.92
8705;BME280;4389;41.932;25.904;2023-03-03T08:04:01;100729.00;;;10.15;84.95
8705;BME280;4389;41.932;25.904;2023-03-03T08:06:50;100722.13;;;10.24;84.65
8705;BME280;4389;41.932;25.904;2023-03-03T08:09:29;100738.78;;;9.93;84.81
8705;BME280;4389;41.932;25.904;2023-03-03T08:11:58;100732.78;;;9.26;86.64
8705;BME280;4389;41.932;25.904;2023-03-03T08:14:30;100738.34;;;9.23;88.22
8705;BME280;4389;41.932;25.904;2023-03-03T08:16:57;100729.47;;;9.13;88.20
8705;BME280;4389;41.932;25.904;2023-03-03T08:19:26;100729.69;;;9.21;87.58
8705;BME280;4389;41.932;25.904;2023-03-03T08:21:57;100725.84;;;9.03;88.32
8705;BME280;4389;41.932;25.904;2023-03-03T08:24:26;100722.72;;;9.31;88.91
8705;BME280;4389;41.932;25.904;2023-03-03T08:26:53;100723.59;;;9.10;88.25
8705;BME280;4389;41.932;25.904;2023-03-03T08:29:20;100717.44;;;9.42;87.90
8705;BME280;4389;41.932;25.904;2023-03-03T08:31:46;100709.19;;;9.67;86.16
8705;BME280;4389;41.932;25.904;2023-03-03T08:34:13;100707.56;;;9.55;86.74
8705;BME280;4389;41.932;25.904;2023-03-03T08:36:41;100703.97;;;9.88;86.00
8705;BME280;4389;41.932;25.904;2023-03-03T08:39:08;100705.59;;;10.00;84.64
8705;BME280;4389;41.932;25.904;2023-03-03T08:41:35;100713.78;;;10.28;84.60
8705;BME280;4389;41.932;25.904;2023-03-03T08:44:03;100704.81;;;10.40;82.19
8705;BME280;4389;41.932;25.904;2023-03-03T08:46:30;100713.00;;;10.78;81.19
8705;BME280;4389;41.932;25.904;2023-03-03T08:48:57;100702.47;;;10.97;78.33
8705;BME280;4389;41.932;25.904;2023-03-03T08:51:24;100697.00;;;10.89;77.83
8705;BME280;4389;41.932;25.904;2023-03-03T08:53:52;100695.13;;;10.71;79.14
8705;BME280;4389;41.932;25.904;2023-03-03T08:56:19;100704.22;;;11.17;78.38
8705;BME280;4389;41.932;25.904;2023-03-03T08:58:46;100698.25;;;11.64;77.17
8705;BME280;4389;41.932;25.904;2023-03-03T09:01:14;100704.03;;;11.39;76.19
8705;BME280;4389;41.932;25.904;2023-03-03T09:03:41;100707.69;;;11.57;76.15
8705;BME280;4389;41.932;25.904;2023-03-03T09:06:08;100693.53;;;11.96;73.78
8705;BME280;4389;41.932;25.904;2023-03-03T09:08:35;100693.22;;;11.61;74.01
8705;BME280;4389;41.932;25.904;2023-03-03T09:11:08;100695.09;;;10.91;75.66
8705;BME280;4389;41.932;25.904;2023-03-03T09:13:35;100691.72;;;11.19;74.91
8705;BME280;4389;41.932;25.904;2023-03-03T09:16:09;100689.94;;;11.29;75.19
8705;BME280;4389;41.932;25.904;2023-03-03T09:18:38;100687.78;;;11.14;73.36
8705;BME280;4389;41.932;25.904;2023-03-03T09:21:18;100689.84;;;11.10;75.08
8705;BME280;4389;41.932;25.904;2023-03-03T09:23:49;100690.50;;;10.93;77.79
8705;BME280;4389;41.932;25.904;2023-03-03T09:26:28;100684.09;;;10.04;80.36
8705;BME280;4389;41.932;25.904;2023-03-03T09:29:00;100682.13;;;9.43;82.59
8705;BME280;4389;41.932;25.904;2023-03-03T09:31:37;100682.41;;;9.29;84.32
8705;BME280;4389;41.932;25.904;2023-03-03T09:34:15;100687.94;;;9.15;85.63
8705;BME280;4389;41.932;25.904;2023-03-03T09:36:44;100688.84;;;9.47;85.73
8705;BME280;4389;41.932;25.904;2023-03-03T09:39:16;100681.16;;;9.55;85.03
8705;BME280;4389;41.932;25.904;2023-03-03T09:42:15;100672.19;;;9.36;85.94
8705;BME280;4389;41.932;25.904;2023-03-03T09:50:46;100671.81;;;9.40;85.56
8705;BME280;4389;41.932;25.904;2023-03-03T09:53:25;100669.53;;;9.36;85.32
8705;BME280;4389;41.932;25.904;2023-03-03T09:56:04;100673.03;;;9.25;86.20
8705;BME280;4389;41.932;25.904;2023-03-03T09:58:50;100680.75;;;9.17;86.66
8705;BME280;4389;41.932;25.904;2023-03-03T10:01:32;100680.50;;;9.09;85.77
8705;BME280;4389;41.932;25.904;2023-03-03T10:04:13;100675.69;;;9.25;85.64
8705;BME280;4389;41.932;25.904;2023-03-03T10:06:44;100664.31;;;9.25;85.52
8705;BME280;4389;41.932;25.904;2023-03-03T10:09:41;100667.91;;;9.24;86.48
8705;BME280;4389;41.932;25.904;2023-03-03T10:12:15;100660.81;;;9.24;85.42
8705;BME280;4389;41.932;25.904;2023-03-03T10:15:16;100658.44;;;9.10;85.30
8705;BME280;4389;41.932;25.904;2023-03-03T10:17:49;100657.19;;;9.25;83.80
8705;BME280;4389;41.932;25.904;2023-03-03T10:20:33;100655.25;;;9.38;83.61
8705;BME280;4389;41.932;25.904;2023-03-03T10:23:14;100656.22;;;9.48;84.09
8705;BME280;4389;41.932;25.904;2023-03-03T10:25:52;100656.41;;;9.56;84.55
8705;BME280;4389;41.932;25.904;2023-03-03T10:28:36;100646.75;;;9.35;86.05
8705;BME280;4389;41.932;25.904;2023-03-03T10:31:16;100643.66;;;9.61;87.32
8705;BME280;4389;41.932;25.904;2023-03-03T10:33:53;100644.81;;;9.68;85.64
8705;BME280;4389;41.932;25.904;2023-03-03T10:36:33;100645.19;;;9.75;85.37
8705;BME280;4389;41.932;25.904;2023-03-03T10:39:21;100638.66;;;9.47;85.99
8705;BME280;4389;41.932;25.904;2023-03-03T10:42:09;100645.91;;;9.34;87.44
8705;BME280;4389;41.932;25.904;2023-03-03T10:44:51;100641.38;;;9.25;87.80
8705;BME280;4389;41.932;25.904;2023-03-03T10:47:43;100642.31;;;9.35;88.25
8705;BME280;4389;41.932;25.904;2023-03-03T10:50:16;100642.31;;;9.35;87.76
8705;BME280;4389;41.932;25.904;2023-03-03T10:52:51;100640.06;;;9.31;87.82
8705;BME280;4389;41.932;25.904;2023-03-03T10:55:33;100642.81;;;9.29;87.79
8705;BME280;4389;41.932;25.904;2023-03-03T10:58:12;100627.47;;;9.23;89.38
8705;BME280;4389;41.932;25.904;2023-03-03T11:00:50;100631.38;;;9.29;88.19
8705;BME280;4389;41.932;25.904;2023-03-03T11:06:25;100619.94;;;9.50;87.17
8705;BME280;4389;41.932;25.904;2023-03-03T11:08:58;100626.59;;;9.86;87.36
8705;BME280;4389;41.932;25.904;2023-03-03T11:11:35;100624.84;;;9.75;87.00
8705;BME280;4389;41.932;25.904;2023-03-03T11:14:11;100623.28;;;9.52;87.28
8705;BME280;4389;41.932;25.904;2023-03-03T11:16:53;100619.53;;;9.34;88.00
8705;BME280;4389;41.932;25.904;2023-03-03T11:19:50;100613.28;;;9.35;86.99
8705;BME280;4389;41.932;25.904;2023-03-03T11:22:32;100611.91;;;9.72;86.98
8705;BME280;4389;41.932;25.904;2023-03-03T11:25:15;100603.16;;;9.40;87.74
8705;BME280;4389;41.932;25.904;2023-03-03T11:28:08;100599.72;;;9.60;88.16
8705;BME280;4389;41.932;25.904;2023-03-03T11:30:46;100592.56;;;9.72;87.32
8705;BME280;4389;41.932;25.904;2023-03-03T11:33:20;100603.63;;;9.66;84.50
8705;BME280;4389;41.932;25.904;2023-03-03T11:35:54;100602.16;;;9.52;86.74
8705;BME280;4389;41.932;25.904;2023-03-03T11:38:56;100590.78;;;9.52;86.51
8705;BME280;4389;41.932;25.904;2023-03-03T11:41:32;100586.88;;;9.35;86.69
8705;BME280;4389;41.932;25.904;2023-03-03T11:44:15;100594.06;;;9.33;85.88
8705;BME280;4389;41.932;25.904;2023-03-03T11:46:46;100586.00;;;9.66;85.40
8705;BME280;4389;41.932;25.904;2023-03-03T11:49:19;100590.34;;;9.88;84.23
8705;BME280;4389;41.932;25.904;2023-03-03T11:51:55;100588.97;;;9.73;84.74
8705;BME280;4389;41.932;25.904;2023-03-03T11:54:30;100591.75;;;9.71;84.35
8705;BME280;4389;41.932;25.904;2023-03-03T11:57:09;100593.25;;;9.53;84.53
8705;BME280;4389;41.932;25.904;2023-03-03T11:59:47;100590.47;;;9.34;86.31
8705;BME280;4389;41.932;25.904;2023-03-03T12:02:34;100586.38;;;9.41;86.32
8705;BME280;4389;41.932;25.904;2023-03-03T12:05:11;100579.66;;;9.37;87.50
8705;BME280;4389;41.932;25.904;2023-03-03T12:07:47;100582.56;;;9.23;86.74
8705;BME280;4389;41.932;25.904;2023-03-03T12:10:23;100574.25;;;9.07;88.51
8705;BME280;4389;41.932;25.904;2023-03-03T12:13:00;100576.38;;;9.13;88.53
8705;BME280;4389;41.932;25.904;2023-03-03T12:15:32;100580.38;;;8.97;89.03
8705;BME280;4389;41.932;25.904;2023-03-03T12:18:22;100582.31;;;8.95;89.45
8705;BME280;4389;41.932;25.904;2023-03-03T12:21:01;100581.50;;;9.15;89.80
8705;BME280;4389;41.932;25.904;2023-03-03T12:23:46;100584.09;;;8.94;89.60
8705;BME280;4389;41.932;25.904;2023-03-03T12:26:24;100584.81;;;8.96;90.05
8705;BME280;4389;41.932;25.904;2023-03-03T12:28:57;100581.56;;;8.93;89.76
8705;BME280;4389;41.932;25.904;2023-03-03T12:31:37;100582.75;;;9.00;90.54
8705;BME280;4389;41.932;25.904;2023-03-03T12:34:11;100577.25;;;9.03;90.26
8705;BME280;4389;41.932;25.904;2023-03-03T12:36:59;100590.13;;;8.86;88.40
8705;BME280;4389;41.932;25.904;2023-03-03T12:39:44;100594.16;;;9.00;87.42
8705;BME280;4389;41.932;25.904;2023-03-03T12:42:20;100580.00;;;9.01;87.52
8705;BME280;4389;41.932;25.904;2023-03-03T12:44:54;100589.72;;;9.01;87.10
8705;BME280;4389;41.932;25.904;2023-03-03T12:47:28;100587.59;;;8.95;87.77
8705;BME280;4389;41.932;25.904;2023-03-03T12:50:10;100583.84;;;8.97;87.84
8705;BME280;4389;41.932;25.904;2023-03-03T12:52:46;100586.63;;;8.96;87.29
8705;BME280;4389;41.932;25.904;2023-03-03T12:55:33;100591.25;;;9.03;86.85
8705;BME280;4389;41.932;25.904;2023-03-03T12:58:10;100576.59;;;9.21;87.07
8705;BME280;4389;41.932;25.904;2023-03-03T13:00:48;100574.50;;;9.36;86.85
8705;BME280;4389;41.932;25.904;2023-03-03T13:03:23;100575.06;;;9.39;87.56
8705;BME280;4389;41.932;25.904;2023-03-03T13:06:00;100571.16;;;9.54;88.36
8705;BME280;4389;41.932;25.904;2023-03-03T13:08:57;100574.38;;;9.37;87.41
8705;BME280;4389;41.932;25.904;2023-03-03T13:11:44;100567.94;;;9.51;87.68
8705;BME280;4389;41.932;25.904;2023-03-03T13:14:23;100564.16;;;9.64;87.04
8705;BME280;4389;41.932;25.904;2023-03-03T13:17:02;100569.09;;;9.58;86.41
8705;BME280;4389;41.932;25.904;2023-03-03T13:19:33;100562.50;;;9.63;84.92
8705;BME280;4389;41.932;25.904;2023-03-03T13:22:07;100559.66;;;9.55;87.07
8705;BME280;4389;41.932;25.904;2023-03-03T13:24:40;100559.69;;;9.44;87.07
8705;BME280;4389;41.932;25.904;2023-03-03T13:27:14;100568.63;;;9.32;89.40
8705;BME280;4389;41.932;25.904;2023-03-03T13:29:50;100561.94;;;9.28;89.23
8705;BME280;4389;41.932;25.904;2023-03-03T13:32:22;100562.44;;;9.22;89.05
8705;BME280;4389;41.932;25.904;2023-03-03T13:34:53;100565.78;;;9.24;89.09
8705;BME280;4389;41.932;25.904;2023-03-03T13:37:27;100559.81;;;9.11;89.24
8705;BME280;4389;41.932;25.904;2023-03-03T13:39:59;100552.94;;;9.20;89.22
8705;BME280;4389;41.932;25.904;2023-03-03T13:42:32;100552.19;;;9.29;89.96
8705;BME280;4389;41.932;25.904;2023-03-03T13:45:10;100550.34;;;9.40;90.50